Time;durP1;ratioP1;P1;durP2;ratioP2;P2;SDS_P1;SDS_P2;PMS_P1;PMS_P2;Temp;Humidity;BMP_temperature;BMP_pressure;BME280_temperature;BME280_humidity;BME280_pressure;Samples;Min_cycle;Max_cycle;Signal;HPM_P1;HPM_P2
2023/04/07 00:00:35;;;;;;;36.10;17.63;;;;;;;;;;2036248;29;20032;-70
2023/04/07 00:01:56;;;;;;;36.42;17.40;;;;;;;;;;2035017;29;20039;-71
2023/04/07 00:03:16;;;;;;;30.25;17.30;;;;;;;;;;2034579;29;20055;-71
2023/04/07 00:04:37;;;;;;;37.85;15.65;;;;;;;;;;2033457;29;20185;-71
2023/04/07 00:05:58;;;;;;;37.85;15.75;;;;;;;;;;2033662;29;20027;-70
2023/04/07 00:07:19;;;;;;;38.22;17.42;;;;;;;;;;2030243;29;20528;-71
2023/04/07 00:08:40;;;;;;;33.58;16.35;;;;;;;;;;2031140;29;20043;-70
2023/04/07 00:10:01;;;;;;;30.58;16.80;;;;;;;;;;2033480;29;20091;-71
2023/04/07 00:11:22;;;;;;;39.13;17.45;;;;;;;;;;2032231;29;20040;-70
2023/04/07 00:12:43;;;;;;;37.13;16.92;;;;;;;;;;2026472;29;20044;-70
2023/04/07 00:14:04;;;;;;;35.75;17.38;;;;;;;;;;2030686;29;20416;-70
2023/04/07 00:15:25;;;;;;;38.83;17.17;;;;;;;;;;2034697;29;20047;-70
2023/04/07 00:16:46;;;;;;;34.27;16.63;;;;;;;;;;2035233;29;20384;-70
2023/04/07 00:18:07;;;;;;;32.38;16.30;;;;;;;;;;2033984;29;20554;-70
2023/04/07 00:19:27;;;;;;;34.42;17.05;;;;;;;;;;2036714;29;20103;-69
2023/04/07 00:20:48;;;;;;;30.55;16.73;;;;;;;;;;2028366;29;20040;-70
2023/04/07 00:22:09;;;;;;;33.65;16.13;;;;;;;;;;2033837;29;20093;-70
2023/04/07 00:23:30;;;;;;;29.17;16.17;;;;;;;;;;2035629;29;20050;-70
2023/04/07 00:24:51;;;;;;;31.00;15.75;;;;;;;;;;2037031;29;20433;-70
2023/04/07 00:26:12;;;;;;;28.65;15.98;;;;;;;;;;2035673;29;20095;-70
2023/04/07 00:27:33;;;;;;;35.75;17.17;;;;;;;;;;2036439;29;20036;-71
2023/04/07 00:28:54;;;;;;;29.88;16.17;;;;;;;;;;2029693;29;20058;-70
2023/04/07 00:30:15;;;;;;;29.23;16.10;;;;;;;;;;2037589;29;20500;-71
2023/04/07 00:31:36;;;;;;;38.28;16.70;;;;;;;;;;2037432;29;20032;-69
2023/04/07 00:32:56;;;;;;;31.02;16.33;;;;;;;;;;2036462;29;20387;-70
2023/04/07 00:34:17;;;;;;;30.10;17.02;;;;;;;;;;2038266;29;20043;-70
2023/04/07 00:35:38;;;;;;;33.13;16.23;;;;;;;;;;2036944;29;20040;-70
2023/04/07 00:36:59;;;;;;;31.30;16.40;;;;;;;;;;2030944;29;20096;-70
2023/04/07 00:38:20;;;;;;;32.30;17.17;;;;;;;;;;2035812;29;20024;-70
2023/04/07 00:39:41;;;;;;;32.80;16.92;;;;;;;;;;2040249;29;20020;-70
2023/04/07 00:41:02;;;;;;;35.20;17.83;;;;;;;;;;2045579;29;20050;-70
2023/04/07 00:42:23;;;;;;;28.42;15.60;;;;;;;;;;2047440;29;20505;-71
2023/04/07 00:43:44;;;;;;;37.60;15.90;;;;;;;;;;2039677;28;20036;-70
2023/04/07 00:45:05;;;;;;;35.03;15.68;;;;;;;;;;2039964;29;20529;-70
2023/04/07 00:46:27;;;;;;;32.47;15.85;;;;;;;;;;2037812;29;20031;-70
2023/04/07 00:47:47;;;;;;;40.08;18.05;;;;;;;;;;2031059;29;20042;-70
2023/04/07 00:49:08;;;;;;;30.92;14.68;;;;;;;;;;2036699;29;20226;-71
2023/04/07 00:50:29;;;;;;;21.02;13.98;;;;;;;;;;2040219;29;20142;-70
2023/04/07 00:51:50;;;;;;;26.35;14.20;;;;;;;;;;2038479;29;20492;-70
2023/04/07 00:53:11;;;;;;;28.88;14.68;;;;;;;;;;2036363;29;20027;-70
2023/04/07 00:54:32;;;;;;;27.98;14.77;;;;;;;;;;2035601;29;20043;-70
2023/04/07 00:55:53;;;;;;;27.23;13.68;;;;;;;;;;2037935;29;20046;-70
2023/04/07 00:57:14;;;;;;;30.05;13.43;;;;;;;;;;2040282;29;20495;-70
2023/04/07 00:58:35;;;;;;;22.40;12.48;;;;;;;;;;2032983;29;20036;-70
2023/04/07 00:59:56;;;;;;;19.42;12.85;;;;;;;;;;2041020;29;20042;-70
2023/04/07 01:01:29;;;;;;;32.05;15.07;;;;;;;;;;2034862;29;20063;-70
2023/04/07 01:02:58;;;;;;;29.75;13.52;;;;;;;;;;2038046;29;20107;-70
2023/04/07 01:04:25;;;;;;;23.95;11.77;;;;;;;;;;2037590;29;20069;-70
2023/04/07 01:05:52;;;;;;;16.30;10.43;;;;;;;;;;2039025;29;20181;-70
2023/04/07 01:07:33;;;;;;;22.33;11.65;;;;;;;;;;2039809;29;20894;-70
2023/04/07 01:09:15;;;;;;;16.92;11.00;;;;;;;;;;2040067;29;20032;-70
2023/04/07 01:10:42;;;;;;;19.80;10.00;;;;;;;;;;2038686;29;20035;-70
2023/04/07 01:12:11;;;;;;;20.20;10.43;;;;;;;;;;2038010;29;20020;-69
2023/04/07 01:13:37;;;;;;;17.95;10.57;;;;;;;;;;2038362;29;20032;-70
2023/04/07 01:15:03;;;;;;;15.48;10.18;;;;;;;;;;2035482;29;20036;-70
2023/04/07 01:16:33;;;;;;;17.02;11.02;;;;;;;;;;2034950;29;20102;-70
2023/04/07 01:17:57;;;;;;;21.48;10.30;;;;;;;;;;2038022;29;20181;-70
2023/04/07 01:19:18;;;;;;;19.63;10.60;;;;;;;;;;2036796;29;20040;-70
2023/04/07 01:20:39;;;;;;;18.83;10.10;;;;;;;;;;2030381;29;20036;-70
2023/04/07 01:22:00;;;;;;;22.05;10.70;;;;;;;;;;2033729;29;20051;-70
2023/04/07 01:23:34;;;;;;;20.00;10.52;;;;;;;;;;2037628;29;20048;-70
2023/04/07 01:25:14;;;;;;;22.10;10.90;;;;;;;;;;2037994;29;20051;-69
2023/04/07 01:26:36;;;;;;;21.75;10.77;;;;;;;;;;2029856;29;20043;-70
2023/04/07 01:28:04;;;;;;;21.25;10.88;;;;;;;;;;2036201;29;20039;-69
2023/04/07 01:29:27;;;;;;;16.60;10.05;;;;;;;;;;2032173;29;20380;-69
2023/04/07 01:30:48;;;;;;;18.05;10.30;;;;;;;;;;2036619;29;20043;-70
2023/04/07 01:32:10;;;;;;;20.27;9.63;;;;;;;;;;2039082;29;20411;-69
2023/04/07 01:33:32;;;;;;;23.38;12.18;;;;;;;;;;2036825;29;20028;-70
2023/04/07 01:34:54;;;;;;;18.00;10.85;;;;;;;;;;2039566;29;20044;-69
2023/04/07 01:36:15;;;;;;;18.65;10.93;;;;;;;;;;2038550;29;20043;-70
2023/04/07 01:37:37;;;;;;;19.42;10.20;;;;;;;;;;2040226;29;20050;-70
2023/04/07 01:38:58;;;;;;;19.05;11.30;;;;;;;;;;2039054;29;20051;-70
2023/04/07 01:40:20;;;;;;;19.45;10.35;;;;;;;;;;2036220;29;20103;-70
2023/04/07 01:41:41;;;;;;;22.80;10.23;;;;;;;;;;2040816;29;20123;-69
2023/04/07 01:43:03;;;;;;;17.52;11.10;;;;;;;;;;2036613;29;20063;-69
2023/04/07 01:44:24;;;;;;;17.35;10.57;;;;;;;;;;2035871;29;20047;-69
2023/04/07 01:45:46;;;;;;;23.50;11.43;;;;;;;;;;2038885;29;20161;-70
2023/04/07 01:47:07;;;;;;;15.60;10.23;;;;;;;;;;2035840;29;20031;-70
2023/04/07 01:48:28;;;;;;;21.40;11.50;;;;;;;;;;2026963;29;20032;-70
2023/04/07 01:49:50;;;;;;;25.45;11.40;;;;;;;;;;2034240;29;20060;-70
2023/04/07 01:51:16;;;;;;;27.95;11.77;;;;;;;;;;2040555;29;20080;-70
2023/04/07 01:52:37;;;;;;;20.95;11.07;;;;;;;;;;2040153;29;20036;-70
2023/04/07 01:54:00;;;;;;;18.95;10.90;;;;;;;;;;2030170;29;20036;-70
2023/04/07 01:55:21;;;;;;;23.80;12.13;;;;;;;;;;2035047;29;20052;-69
2023/04/07 01:56:43;;;;;;;19.87;10.83;;;;;;;;;;2037592;29;20036;-69
2023/04/07 01:58:05;;;;;;;17.05;10.30;;;;;;;;;;2037691;29;20040;-69
2023/04/07 01:59:26;;;;;;;20.08;10.77;;;;;;;;;;2029652;29;20103;-68
2023/04/07 02:00:47;;;;;;;17.17;9.93;;;;;;;;;;2032465;29;20479;-70
2023/04/07 02:02:08;;;;;;;18.00;10.68;;;;;;;;;;2029100;29;20475;-69
2023/04/07 02:03:39;;;;;;;20.35;11.68;;;;;;;;;;2032051;29;20455;-69
2023/04/07 02:05:04;;;;;;;19.27;10.32;;;;;;;;;;2034554;29;20079;-69
2023/04/07 02:06:30;;;;;;;21.42;11.05;;;;;;;;;;2028053;29;20052;-69
2023/04/07 02:07:54;;;;;;;19.77;10.95;;;;;;;;;;2037775;29;20034;-70
2023/04/07 02:09:16;;;;;;;23.08;10.57;;;;;;;;;;2037861;29;20028;-69
2023/04/07 02:10:37;;;;;;;18.63;10.57;;;;;;;;;;2037581;29;20031;-70
2023/04/07 02:11:59;;;;;;;22.27;11.25;;;;;;;;;;2033846;29;20088;-69
2023/04/07 02:13:21;;;;;;;21.15;11.25;;;;;;;;;;2037886;29;20036;-69
2023/04/07 02:14:42;;;;;;;21.13;10.35;;;;;;;;;;2035551;29;20050;-69
2023/04/07 02:16:04;;;;;;;23.48;9.85;;;;;;;;;;2035816;29;20039;-70
2023/04/07 02:17:25;;;;;;;18.02;10.38;;;;;;;;;;2038785;29;20035;-69
2023/04/07 02:18:46;;;;;;;17.15;10.70;;;;;;;;;;2029050;29;20701;-69
2023/04/07 02:20:09;;;;;;;24.13;11.05;;;;;;;;;;2034011;29;20052;-69
2023/04/07 02:21:32;;;;;;;21.33;11.80;;;;;;;;;;2035017;29;20040;-69
2023/04/07 02:22:54;;;;;;;19.20;9.52;;;;;;;;;;2044606;29;20027;-69
2023/04/07 02:24:18;;;;;;;20.17;10.25;;;;;;;;;;2037719;29;20039;-69
2023/04/07 02:25:39;;;;;;;19.58;10.25;;;;;;;;;;2037503;29;20111;-68
2023/04/07 02:27:00;;;;;;;19.70;10.48;;;;;;;;;;2039627;29;20051;-70
2023/04/07 02:28:21;;;;;;;20.17;10.55;;;;;;;;;;2037858;29;20166;-69
2023/04/07 02:29:42;;;;;;;15.85;9.25;;;;;;;;;;2031253;29;20040;-69
2023/04/07 02:31:03;;;;;;;19.73;10.02;;;;;;;;;;2029164;29;20085;-69
2023/04/07 02:32:24;;;;;;;15.07;10.20;;;;;;;;;;2030353;29;20044;-69
2023/04/07 02:33:45;;;;;;;15.43;9.23;;;;;;;;;;2040062;28;20186;-69
2023/04/07 02:35:06;;;;;;;15.13;8.82;;;;;;;;;;2045631;29;20038;-69
2023/04/07 02:36:27;;;;;;;16.65;9.75;;;;;;;;;;2038372;29;20043;-70
2023/04/07 02:37:48;;;;;;;18.33;10.10;;;;;;;;;;2041779;29;20040;-69
2023/04/07 02:39:09;;;;;;;13.18;9.55;;;;;;;;;;2040066;29;20032;-69
2023/04/07 02:40:30;;;;;;;16.33;9.50;;;;;;;;;;2040634;29;20043;-69
2023/04/07 02:41:51;;;;;;;23.48;9.77;;;;;;;;;;2029035;29;20032;-69
2023/04/07 02:43:12;;;;;;;17.65;10.88;;;;;;;;;;2035920;29;20102;-69
2023/04/07 02:44:33;;;;;;;23.77;10.80;;;;;;;;;;2034842;29;20057;-69
2023/04/07 02:45:55;;;;;;;19.60;11.52;;;;;;;;;;2036632;29;20040;-70
2023/04/07 02:47:16;;;;;;;34.05;10.82;;;;;;;;;;2038924;29;20035;-71
2023/04/07 02:48:36;;;;;;;25.95;11.27;;;;;;;;;;2036322;29;20447;-71
2023/04/07 02:49:57;;;;;;;24.85;11.57;;;;;;;;;;2039573;29;20036;-71
2023/04/07 02:51:18;;;;;;;19.83;10.48;;;;;;;;;;2038826;29;20079;-71
2023/04/07 02:52:39;;;;;;;18.15;11.52;;;;;;;;;;2032419;29;20520;-71
2023/04/07 02:54:00;;;;;;;19.80;10.73;;;;;;;;;;2033143;29;20090;-71
2023/04/07 02:55:21;;;;;;;21.40;11.23;;;;;;;;;;2039091;29;20051;-71
2023/04/07 02:56:42;;;;;;;21.40;10.77;;;;;;;;;;2038516;29;20048;-71
2023/04/07 02:58:03;;;;;;;23.65;11.35;;;;;;;;;;2039325;29;20106;-71
2023/04/07 02:59:24;;;;;;;22.98;11.55;;;;;;;;;;2032061;29;20399;-71
2023/04/07 03:00:46;;;;;;;18.67;11.15;;;;;;;;;;2037696;29;20075;-71
2023/04/07 03:02:07;;;;;;;28.58;11.80;;;;;;;;;;2039596;29;20144;-71
2023/04/07 03:03:28;;;;;;;21.85;11.32;;;;;;;;;;2039100;29;20090;-71
2023/04/07 03:04:52;;;;;;;30.70;12.43;;;;;;;;;;2035850;29;20044;-71
2023/04/07 03:06:13;;;;;;;18.02;10.52;;;;;;;;;;2036029;29;20046;-71
2023/04/07 03:07:34;;;;;;;24.75;11.23;;;;;;;;;;2030110;29;20096;-71
2023/04/07 03:08:55;;;;;;;18.48;10.23;;;;;;;;;;2039278;29;20043;-71
2023/04/07 03:10:16;;;;;;;24.73;11.18;;;;;;;;;;2040104;29;20036;-71
2023/04/07 03:11:37;;;;;;;15.93;11.27;;;;;;;;;;2039147;29;20075;-71
2023/04/07 03:12:58;;;;;;;20.95;11.43;;;;;;;;;;2036856;29;20036;-71
2023/04/07 03:14:19;;;;;;;21.13;10.13;;;;;;;;;;2038544;29;20309;-72
2023/04/07 03:15:40;;;;;;;22.08;11.05;;;;;;;;;;2036783;29;20043;-71
2023/04/07 03:17:01;;;;;;;15.98;10.32;;;;;;;;;;2037961;29;20035;-71
2023/04/07 03:18:22;;;;;;;19.90;11.18;;;;;;;;;;2036813;29;20036;-71
2023/04/07 03:19:42;;;;;;;15.65;10.95;;;;;;;;;;2038752;29;20114;-71
2023/04/07 03:21:03;;;;;;;22.63;11.27;;;;;;;;;;2037258;29;20047;-72
2023/04/07 03:22:24;;;;;;;14.68;9.18;;;;;;;;;;2043164;29;20039;-71
2023/04/07 03:23:46;;;;;;;17.30;10.60;;;;;;;;;;2038525;29;20035;-71
2023/04/07 03:25:07;;;;;;;22.50;11.15;;;;;;;;;;2037504;29;20192;-71
2023/04/07 03:26:28;;;;;;;28.88;12.15;;;;;;;;;;2037148;29;20028;-71
2023/04/07 03:27:49;;;;;;;16.85;10.05;;;;;;;;;;2040033;29;20035;-71
2023/04/07 03:29:10;;;;;;;23.38;11.48;;;;;;;;;;2038933;29;20035;-71
2023/04/07 03:30:31;;;;;;;20.25;10.38;;;;;;;;;;2032183;29;20504;-71
2023/04/07 03:31:52;;;;;;;24.80;12.35;;;;;;;;;;2036203;29;20036;-71
2023/04/07 03:33:13;;;;;;;19.98;11.18;;;;;;;;;;2040110;29;20059;-71
2023/04/07 03:34:33;;;;;;;27.08;11.27;;;;;;;;;;2038663;29;20035;-71
2023/04/07 03:35:54;;;;;;;20.58;10.65;;;;;;;;;;2029598;29;20096;-70
2023/04/07 03:37:15;;;;;;;23.58;11.35;;;;;;;;;;2037242;29;20479;-70
2023/04/07 03:38:36;;;;;;;20.88;10.55;;;;;;;;;;2038026;29;20043;-71
2023/04/07 03:39:57;;;;;;;23.90;10.95;;;;;;;;;;2039511;29;20039;-72
2023/04/07 03:41:18;;;;;;;21.90;10.25;;;;;;;;;;2038690;29;20027;-71
2023/04/07 03:42:39;;;;;;;20.83;10.73;;;;;;;;;;2040839;29;20106;-71
2023/04/07 03:43:59;;;;;;;19.23;11.77;;;;;;;;;;2035001;29;20047;-70
2023/04/07 03:45:20;;;;;;;16.27;9.35;;;;;;;;;;2039308;29;20039;-71
2023/04/07 03:46:41;;;;;;;26.55;10.85;;;;;;;;;;2039211;29;20395;-71
2023/04/07 03:48:02;;;;;;;25.42;10.90;;;;;;;;;;2037857;29;20032;-71
2023/04/07 03:49:23;;;;;;;22.75;10.70;;;;;;;;;;2038150;29;20075;-71
2023/04/07 03:50:44;;;;;;;18.13;10.13;;;;;;;;;;2035273;29;20068;-71
2023/04/07 03:52:05;;;;;;;21.38;10.48;;;;;;;;;;2038169;29;20087;-71
2023/04/07 03:53:26;;;;;;;21.60;10.55;;;;;;;;;;2039934;29;20035;-70
2023/04/07 03:54:47;;;;;;;22.45;10.35;;;;;;;;;;2038942;29;20780;-71
2023/04/07 03:56:08;;;;;;;19.80;10.95;;;;;;;;;;2037139;29;20091;-71
2023/04/07 03:57:29;;;;;;;20.90;10.75;;;;;;;;;;2039715;29;20095;-71
2023/04/07 03:58:50;;;;;;;20.60;11.10;;;;;;;;;;2031464;29;20530;-71
2023/04/07 04:00:11;;;;;;;20.25;10.00;;;;;;;;;;2035917;29;20043;-71
2023/04/07 04:01:32;;;;;;;25.92;10.20;;;;;;;;;;2035756;29;20035;-70
2023/04/07 04:02:53;;;;;;;19.00;9.70;;;;;;;;;;2038145;29;20040;-71
2023/04/07 04:04:14;;;;;;;19.80;10.75;;;;;;;;;;2038972;29;20559;-71
2023/04/07 04:05:35;;;;;;;22.00;11.40;;;;;;;;;;2036551;29;20054;-71
2023/04/07 04:06:55;;;;;;;21.92;9.93;;;;;;;;;;2040154;29;20036;-69
2023/04/07 04:08:16;;;;;;;20.00;10.00;;;;;;;;;;2032658;29;20028;-71
2023/04/07 04:09:37;;;;;;;21.92;10.43;;;;;;;;;;2035351;29;20103;-71
2023/04/07 04:10:58;;;;;;;23.30;10.50;;;;;;;;;;2036290;29;20507;-71
2023/04/07 04:12:19;;;;;;;23.52;10.63;;;;;;;;;;2032969;29;20060;-71
2023/04/07 04:13:40;;;;;;;25.17;10.68;;;;;;;;;;2035397;29;20032;-71
2023/04/07 04:15:01;;;;;;;21.00;10.75;;;;;;;;;;2036196;29;20483;-71
2023/04/07 04:16:22;;;;;;;17.55;9.65;;;;;;;;;;2038848;29;20051;-72
2023/04/07 04:17:43;;;;;;;26.27;11.30;;;;;;;;;;2026933;29;20088;-72
2023/04/07 04:19:04;;;;;;;18.90;9.95;;;;;;;;;;2035924;29;20121;-72
2023/04/07 04:20:25;;;;;;;22.50;10.70;;;;;;;;;;2037243;29;20039;-71
2023/04/07 04:21:46;;;;;;;21.80;10.60;;;;;;;;;;2038967;29;20090;-71
2023/04/07 04:23:06;;;;;;;19.75;10.35;;;;;;;;;;2029365;29;20035;-72
2023/04/07 04:24:27;;;;;;;22.77;11.20;;;;;;;;;;2034021;29;20047;-71
2023/04/07 04:25:48;;;;;;;21.10;10.25;;;;;;;;;;2029764;29;20588;-71
2023/04/07 04:27:09;;;;;;;21.17;10.30;;;;;;;;;;2036869;29;20951;-72
2023/04/07 04:28:30;;;;;;;23.98;10.23;;;;;;;;;;2037826;29;20108;-71
2023/04/07 04:29:51;;;;;;;17.30;10.10;;;;;;;;;;2038378;29;20067;-72
2023/04/07 04:31:12;;;;;;;16.08;10.10;;;;;;;;;;2041553;29;20111;-72
2023/04/07 04:32:33;;;;;;;30.55;12.00;;;;;;;;;;2038837;29;20036;-71
2023/04/07 04:33:54;;;;;;;21.05;11.32;;;;;;;;;;2038911;29;20082;-72
2023/04/07 04:35:15;;;;;;;21.15;10.32;;;;;;;;;;2043402;29;20035;-71
2023/04/07 04:36:36;;;;;;;19.05;10.00;;;;;;;;;;2036277;29;20040;-70
2023/04/07 04:37:57;;;;;;;20.73;10.02;;;;;;;;;;2030526;29;20480;-71
2023/04/07 04:39:18;;;;;;;23.80;10.88;;;;;;;;;;2034940;29;20044;-71
2023/04/07 04:40:38;;;;;;;19.48;10.85;;;;;;;;;;2039339;29;20064;-71
2023/04/07 04:42:00;;;;;;;23.30;11.52;;;;;;;;;;2040004;29;20054;-71
2023/04/07 04:43:20;;;;;;;22.65;11.38;;;;;;;;;;2039484;29;20487;-71
2023/04/07 04:44:41;;;;;;;20.17;10.98;;;;;;;;;;2029236;29;20052;-71
2023/04/07 04:46:02;;;;;;;23.92;11.18;;;;;;;;;;2033055;29;20042;-72
2023/04/07 04:47:23;;;;;;;26.52;11.95;;;;;;;;;;2036219;29;20483;-71
2023/04/07 04:48:44;;;;;;;21.90;10.85;;;;;;;;;;2037113;29;20035;-71
2023/04/07 04:50:06;;;;;;;25.02;12.82;;;;;;;;;;2039096;29;20042;-71
2023/04/07 04:51:26;;;;;;;28.80;12.43;;;;;;;;;;2034287;29;20053;-71
2023/04/07 04:52:47;;;;;;;26.20;11.75;;;;;;;;;;2037877;29;20028;-72
2023/04/07 04:54:08;;;;;;;20.98;10.27;;;;;;;;;;2035247;29;20031;-71
2023/04/07 04:55:29;;;;;;;31.15;13.10;;;;;;;;;;2028258;29;20036;-71
2023/04/07 04:56:50;;;;;;;20.65;10.73;;;;;;;;;;2035314;29;20035;-71
2023/04/07 04:58:11;;;;;;;24.80;11.43;;;;;;;;;;2031435;29;20044;-71
2023/04/07 04:59:32;;;;;;;21.63;10.60;;;;;;;;;;2030571;29;20032;-71
2023/04/07 05:00:57;;;;;;;31.80;12.63;;;;;;;;;;2031707;29;20075;-71
2023/04/07 05:02:18;;;;;;;27.02;11.85;;;;;;;;;;2034991;29;20451;-71
2023/04/07 05:03:39;;;;;;;27.63;10.88;;;;;;;;;;2038188;29;20032;-71
2023/04/07 05:05:00;;;;;;;23.90;11.68;;;;;;;;;;2040928;29;20043;-71
2023/04/07 05:06:21;;;;;;;29.63;11.77;;;;;;;;;;2035918;29;20788;-71
2023/04/07 05:07:42;;;;;;;28.73;11.85;;;;;;;;;;2037944;29;20036;-71
2023/04/07 05:09:02;;;;;;;32.58;12.80;;;;;;;;;;2028991;29;20558;-70
2023/04/07 05:10:23;;;;;;;25.58;11.57;;;;;;;;;;2035103;29;21396;-71
2023/04/07 05:11:44;;;;;;;26.83;10.65;;;;;;;;;;2040346;29;20038;-71
2023/04/07 05:13:05;;;;;;;25.23;11.73;;;;;;;;;;2039925;29;20027;-71
2023/04/07 05:14:26;;;;;;;26.70;12.43;;;;;;;;;;2032203;29;20036;-71
2023/04/07 05:15:47;;;;;;;27.42;11.57;;;;;;;;;;2036133;29;20047;-71
2023/04/07 05:17:08;;;;;;;26.50;13.63;;;;;;;;;;2037447;29;20555;-71
2023/04/07 05:18:29;;;;;;;31.88;11.90;;;;;;;;;;2030685;29;20101;-71
2023/04/07 05:19:50;;;;;;;26.08;12.18;;;;;;;;;;2035642;29;20166;-71
2023/04/07 05:21:10;;;;;;;24.67;10.90;;;;;;;;;;2040449;29;20051;-71
2023/04/07 05:22:31;;;;;;;23.83;11.00;;;;;;;;;;2038463;29;20043;-72
2023/04/07 05:23:53;;;;;;;22.08;10.07;;;;;;;;;;2031781;29;20043;-71
2023/04/07 05:25:13;;;;;;;24.55;11.32;;;;;;;;;;2035613;29;20388;-71
2023/04/07 05:26:34;;;;;;;32.42;11.27;;;;;;;;;;2030035;29;20121;-71
2023/04/07 05:27:56;;;;;;;25.38;11.93;;;;;;;;;;2033895;29;20071;-71
2023/04/07 05:29:17;;;;;;;24.60;11.48;;;;;;;;;;2038546;29;20501;-71
2023/04/07 05:30:38;;;;;;;24.55;12.57;;;;;;;;;;2041732;29;20046;-72
2023/04/07 05:32:00;;;;;;;20.38;11.00;;;;;;;;;;2037068;29;20024;-72
2023/04/07 05:33:21;;;;;;;27.13;11.90;;;;;;;;;;2036853;29;20111;-72
2023/04/07 05:34:42;;;;;;;24.02;11.57;;;;;;;;;;2027928;29;20425;-71
2023/04/07 05:36:03;;;;;;;31.52;11.93;;;;;;;;;;2026960;29;20172;-72
2023/04/07 05:37:24;;;;;;;25.50;11.57;;;;;;;;;;2034831;29;20495;-72
2023/04/07 05:38:45;;;;;;;21.80;11.13;;;;;;;;;;2037601;29;20506;-71
2023/04/07 05:40:06;;;;;;;29.77;11.00;;;;;;;;;;2041508;29;20032;-71
2023/04/07 05:41:27;;;;;;;25.17;11.23;;;;;;;;;;2036816;29;20664;-72
2023/04/07 05:42:48;;;;;;;28.00;12.60;;;;;;;;;;2038378;29;20035;-72
2023/04/07 05:44:09;;;;;;;34.55;13.63;;;;;;;;;;2038884;29;20039;-71
2023/04/07 05:45:30;;;;;;;24.63;12.30;;;;;;;;;;2038670;29;20563;-72
2023/04/07 05:46:50;;;;;;;30.48;11.52;;;;;;;;;;2036522;29;20079;-72
2023/04/07 05:48:11;;;;;;;23.88;12.32;;;;;;;;;;2040662;29;20035;-72
2023/04/07 05:49:32;;;;;;;27.83;11.90;;;;;;;;;;2025935;29;20036;-71
2023/04/07 05:50:53;;;;;;;29.27;12.48;;;;;;;;;;2031917;29;20024;-72
2023/04/07 05:52:14;;;;;;;26.75;12.73;;;;;;;;;;2037619;29;20039;-72
2023/04/07 05:53:35;;;;;;;25.13;11.57;;;;;;;;;;2038392;29;20043;-72
2023/04/07 05:54:56;;;;;;;28.60;11.52;;;;;;;;;;2037626;29;20511;-71
2023/04/07 05:56:17;;;;;;;32.50;11.75;;;;;;;;;;2038514;29;20094;-72
2023/04/07 05:57:38;;;;;;;31.55;12.43;;;;;;;;;;2038912;29;20039;-72
2023/04/07 05:59:00;;;;;;;28.15;12.25;;;;;;;;;;2036791;29;20023;-71
2023/04/07 06:00:21;;;;;;;26.85;11.77;;;;;;;;;;2040137;29;20043;-72
2023/04/07 06:01:42;;;;;;;30.52;13.25;;;;;;;;;;2031181;29;20039;-72
2023/04/07 06:03:03;;;;;;;34.88;11.75;;;;;;;;;;2036296;29;20071;-72
2023/04/07 06:04:24;;;;;;;28.50;11.68;;;;;;;;;;2039230;29;20044;-70
2023/04/07 06:05:45;;;;;;;26.17;11.48;;;;;;;;;;2039802;29;20051;-71
2023/04/07 06:07:06;;;;;;;27.77;12.98;;;;;;;;;;2038957;29;20040;-72
2023/04/07 06:08:27;;;;;;;23.70;11.93;;;;;;;;;;2040753;29;20032;-71
2023/04/07 06:09:48;;;;;;;22.38;12.18;;;;;;;;;;2037628;29;20498;-72
2023/04/07 06:11:09;;;;;;;29.02;13.45;;;;;;;;;;2038053;29;20425;-71
2023/04/07 06:12:30;;;;;;;31.38;14.38;;;;;;;;;;2037408;29;20032;-72
2023/04/07 06:13:51;;;;;;;22.67;12.18;;;;;;;;;;2039817;29;20039;-72
2023/04/07 06:15:12;;;;;;;29.05;12.55;;;;;;;;;;2041016;29;20044;-70
2023/04/07 06:16:33;;;;;;;26.92;13.70;;;;;;;;;;2032504;29;20048;-70
2023/04/07 06:17:53;;;;;;;27.98;12.90;;;;;;;;;;2036122;29;20068;-70
2023/04/07 06:19:14;;;;;;;31.35;13.10;;;;;;;;;;2038381;29;20031;-69
2023/04/07 06:20:35;;;;;;;22.13;12.38;;;;;;;;;;2039929;29;20433;-70
2023/04/07 06:21:56;;;;;;;27.42;11.73;;;;;;;;;;2033164;29;20048;-70
2023/04/07 06:23:17;;;;;;;26.88;12.02;;;;;;;;;;2029004;29;20091;-70
2023/04/07 06:24:38;;;;;;;24.17;12.60;;;;;;;;;;2036179;28;20386;-70
2023/04/07 06:25:59;;;;;;;29.25;12.55;;;;;;;;;;2038595;29;20095;-70
2023/04/07 06:27:20;;;;;;;27.42;12.43;;;;;;;;;;2039096;29;20036;-70
2023/04/07 06:28:41;;;;;;;35.35;13.38;;;;;;;;;;2041391;29;20082;-70
2023/04/07 06:30:02;;;;;;;25.67;12.38;;;;;;;;;;2038501;29;20590;-70
2023/04/07 06:31:23;;;;;;;27.00;12.30;;;;;;;;;;2040269;29;20089;-70
2023/04/07 06:32:44;;;;;;;26.50;11.68;;;;;;;;;;2037417;29;20083;-70
2023/04/07 06:34:05;;;;;;;27.35;13.02;;;;;;;;;;2039032;29;20083;-70
2023/04/07 06:35:26;;;;;;;28.15;13.07;;;;;;;;;;2038876;29;20060;-70
2023/04/07 06:36:47;;;;;;;22.05;12.35;;;;;;;;;;2038936;29;20083;-70
2023/04/07 06:38:10;;;;;;;18.88;12.05;;;;;;;;;;2043524;29;20043;-70
2023/04/07 06:39:31;;;;;;;28.63;12.00;;;;;;;;;;2040703;29;20027;-70
2023/04/07 06:40:52;;;;;;;25.55;11.98;;;;;;;;;;2038237;29;20035;-70
2023/04/07 06:42:12;;;;;;;22.35;11.65;;;;;;;;;;2040264;29;20083;-70
2023/04/07 06:43:33;;;;;;;26.30;12.57;;;;;;;;;;2044325;29;20058;-70
2023/04/07 06:44:54;;;;;;;22.55;12.43;;;;;;;;;;2040048;28;20047;-70
2023/04/07 06:46:15;;;;;;;17.27;10.77;;;;;;;;;;2041809;29;20031;-70
2023/04/07 06:47:37;;;;;;;23.80;10.93;;;;;;;;;;2037675;29;20083;-70
2023/04/07 06:48:57;;;;;;;21.67;9.90;;;;;;;;;;2041465;29;20031;-71
2023/04/07 06:50:21;;;;;;;24.50;11.15;;;;;;;;;;2034110;29;20062;-70
2023/04/07 06:51:41;;;;;;;18.63;9.90;;;;;;;;;;2038752;29;20031;-73
2023/04/07 06:53:03;;;;;;;22.73;10.50;;;;;;;;;;2038445;29;20315;-74
2023/04/07 06:54:24;;;;;;;18.77;9.47;;;;;;;;;;2040844;29;20459;-74
2023/04/07 06:55:45;;;;;;;15.27;9.27;;;;;;;;;;2041906;29;20438;-77
2023/04/07 06:57:10;;;;;;;17.83;10.20;;;;;;;;;;2033984;29;20069;-74
2023/04/07 06:58:31;;;;;;;22.67;11.20;;;;;;;;;;2037538;29;20035;-76
2023/04/07 06:59:52;;;;;;;15.32;9.82;;;;;;;;;;2041021;29;20047;-76
2023/04/07 07:01:13;;;;;;;14.18;9.18;;;;;;;;;;2039487;29;20032;-76
2023/04/07 07:02:34;;;;;;;18.52;10.13;;;;;;;;;;2039891;29;20875;-75
2023/04/07 07:03:55;;;;;;;18.38;10.82;;;;;;;;;;2037554;29;20036;-76
2023/04/07 07:05:16;;;;;;;19.58;9.65;;;;;;;;;;2040413;29;20492;-73
2023/04/07 07:06:37;;;;;;;20.95;10.55;;;;;;;;;;2040923;29;20035;-76
2023/04/07 07:07:57;;;;;;;17.00;9.82;;;;;;;;;;2042874;29;20032;-77
2023/04/07 07:09:18;;;;;;;20.65;10.50;;;;;;;;;;2037440;29;20035;-76
2023/04/07 07:10:39;;;;;;;23.27;10.00;;;;;;;;;;2039127;29;20531;-77
2023/04/07 07:12:03;;;;;;;25.30;10.98;;;;;;;;;;2031244;29;20020;-79
2023/04/07 07:13:25;;;;;;;17.90;9.85;;;;;;;;;;2029236;29;20028;-78
2023/04/07 07:14:46;;;;;;;20.05;11.55;;;;;;;;;;2028596;29;20393;-77
2023/04/07 07:16:07;;;;;;;17.88;9.23;;;;;;;;;;2038878;29;20028;-77
2023/04/07 07:17:27;;;;;;;20.25;10.50;;;;;;;;;;2041619;29;20391;-76
2023/04/07 07:18:49;;;;;;;19.52;8.80;;;;;;;;;;2039997;29;20032;-75
2023/04/07 07:20:10;;;;;;;17.05;9.85;;;;;;;;;;2034385;29;20048;-80
2023/04/07 07:21:31;;;;;;;14.07;8.82;;;;;;;;;;2039394;29;20023;-79
2023/04/07 07:22:52;;;;;;;15.60;9.85;;;;;;;;;;2040302;29;20068;-82
2023/04/07 07:24:13;;;;;;;18.45;9.10;;;;;;;;;;2030310;29;20040;-83
2023/04/07 07:25:34;;;;;;;21.85;10.48;;;;;;;;;;2037897;29;20048;-81
2023/04/07 07:26:56;;;;;;;18.50;9.50;;;;;;;;;;2039718;29;20075;-79
2023/04/07 07:28:17;;;;;;;18.50;9.07;;;;;;;;;;2033823;29;20027;-78
2023/04/07 07:29:38;;;;;;;15.73;9.52;;;;;;;;;;2038035;29;20087;-75
2023/04/07 07:30:59;;;;;;;20.33;10.52;;;;;;;;;;2038834;29;20484;-78
2023/04/07 07:32:20;;;;;;;17.17;9.40;;;;;;;;;;2031918;29;20045;-78
2023/04/07 07:33:42;;;;;;;16.65;8.57;;;;;;;;;;2042520;29;20060;-69
2023/04/07 07:35:03;;;;;;;15.25;8.52;;;;;;;;;;2039203;29;20456;-69
2023/04/07 07:36:25;;;;;;;17.65;9.18;;;;;;;;;;2038291;29;20095;-70
2023/04/07 07:37:46;;;;;;;11.35;7.43;;;;;;;;;;2031311;29;20523;-70
2023/04/07 07:39:07;;;;;;;18.60;9.38;;;;;;;;;;2033315;29;20039;-69
2023/04/07 07:40:28;;;;;;;20.40;9.45;;;;;;;;;;2031450;29;20037;-70
2023/04/07 07:41:50;;;;;;;16.85;9.02;;;;;;;;;;2033933;29;20043;-70
2023/04/07 07:43:11;;;;;;;13.68;7.43;;;;;;;;;;2038189;29;20036;-70
2023/04/07 07:44:32;;;;;;;11.73;7.72;;;;;;;;;;2040929;29;20031;-70
2023/04/07 07:45:52;;;;;;;13.18;8.27;;;;;;;;;;2040428;29;20518;-70
2023/04/07 07:47:13;;;;;;;16.27;8.48;;;;;;;;;;2031393;29;20091;-72
2023/04/07 07:48:34;;;;;;;16.20;9.25;;;;;;;;;;2035485;29;20032;-71
2023/04/07 07:49:55;;;;;;;18.50;8.35;;;;;;;;;;2034743;29;20030;-72
2023/04/07 07:51:17;;;;;;;20.00;9.73;;;;;;;;;;2038452;29;20028;-72
2023/04/07 07:52:38;;;;;;;13.83;8.53;;;;;;;;;;2039783;29;20020;-73
2023/04/07 07:53:58;;;;;;;14.48;8.23;;;;;;;;;;2040459;29;20426;-70
2023/04/07 07:55:19;;;;;;;12.70;8.27;;;;;;;;;;2040039;29;20032;-71